sensor_id;sensor_type;location;lat;lon;timestamp;pressure;altitude;pressure_sealevel;temperature;humidity
66398;BME280;54877;51.504;3.894;2023-05-21T00:00:08;101970.34;;;18.02;58.21
66398;BME280;54877;51.504;3.894;2023-05-21T00:02:36;101977.50;;;18.01;58.38
66398;BME280;54877;51.504;3.894;2023-05-21T00:05:03;101973.41;;;17.96;58.51
66398;BME280;54877;51.504;3.894;2023-05-21T00:07:29;101984.31;;;17.93;58.41
66398;BME280;54877;51.504;3.894;2023-05-21T00:09:55;101974.94;;;17.86;58.36
66398;BME280;54877;51.504;3.894;2023-05-21T00:12:21;101979.31;;;17.87;58.36
66398;BME280;54877;51.504;3.894;2023-05-21T00:14:46;101976.75;;;17.85;58.23
66398;BME280;54877;51.504;3.894;2023-05-21T00:17:12;101969.59;;;17.86;58.24
66398;BME280;54877;51.504;3.894;2023-05-21T00:19:37;101981.25;;;17.85;58.50
66398;BME280;54877;51.504;3.894;2023-05-21T00:22:03;101983.91;;;17.85;58.43
66398;BME280;54877;51.504;3.894;2023-05-21T00:24:29;101982.97;;;17.86;58.64
66398;BME280;54877;51.504;3.894;2023-05-21T00:26:54;101977.81;;;17.83;58.82
66398;BME280;54877;51.504;3.894;2023-05-21T00:29:20;101971.50;;;17.84;58.77
66398;BME280;54877;51.504;3.894;2023-05-21T00:31:46;101978.56;;;17.85;58.73
66398;BME280;54877;51.504;3.894;2023-05-21T00:34:12;101970.16;;;17.91;58.63
66398;BME280;54877;51.504;3.894;2023-05-21T00:36:38;101975.50;;;17.91;58.63
66398;BME280;54877;51.504;3.894;2023-05-21T00:39:04;101981.25;;;17.85;58.67
66398;BME280;54877;51.504;3.894;2023-05-21T00:41:30;101976.75;;;17.85;58.56
66398;BME280;54877;51.504;3.894;2023-05-21T00:43:56;101981.06;;;17.88;58.35
66398;BME280;54877;51.504;3.894;2023-05-21T00:46:24;101974.19;;;17.84;58.33
66398;BME280;54877;51.504;3.894;2023-05-21T00:48:52;101967.84;;;17.85;58.30
66398;BME280;54877;51.504;3.894;2023-05-21T00:51:18;101968.81;;;17.84;58.01
66398;BME280;54877;51.504;3.894;2023-05-21T00:53:45;101963.47;;;17.84;58.19
66398;BME280;54877;51.504;3.894;2023-05-21T00:56:13;101970.53;;;17.85;58.10
66398;BME280;54877;51.504;3.894;2023-05-21T00:58:38;101960.19;;;17.79;58.26
66398;BME280;54877;51.504;3.894;2023-05-21T01:01:04;101967.47;;;17.77;58.16
66398;BME280;54877;51.504;3.894;2023-05-21T01:03:31;101963.09;;;17.76;58.35
66398;BME280;54877;51.504;3.894;2023-05-21T01:06:03;101963.47;;;17.70;58.34
66398;BME280;54877;51.504;3.894;2023-05-21T01:08:29;101965.75;;;17.76;58.20
66398;BME280;54877;51.504;3.894;2023-05-21T01:10:55;101960.78;;;17.70;58.05
66398;BME280;54877;51.504;3.894;2023-05-21T01:13:21;101955.31;;;17.71;58.10
66398;BME280;54877;51.504;3.894;2023-05-21T01:15:48;101955.22;;;17.73;58.31
66398;BME280;54877;51.504;3.894;2023-05-21T01:18:14;101959.03;;;17.69;58.24
66398;BME280;54877;51.504;3.894;2023-05-21T01:20:40;101959.91;;;17.69;58.42
66398;BME280;54877;51.504;3.894;2023-05-21T01:23:11;101961.91;;;17.66;58.26
66398;BME280;54877;51.504;3.894;2023-05-21T01:25:40;101955.59;;;17.67;58.21
66398;BME280;54877;51.504;3.894;2023-05-21T01:28:06;101959.41;;;17.63;58.33
66398;BME280;54877;51.504;3.894;2023-05-21T01:30:31;101953.09;;;17.64;58.52
66398;BME280;54877;51.504;3.894;2023-05-21T01:35:26;101954.44;;;17.56;58.61
66398;BME280;54877;51.504;3.894;2023-05-21T01:37:55;101956.91;;;17.59;58.41
66398;BME280;54877;51.504;3.894;2023-05-21T01:40:29;101959.59;;;17.59;58.48
66398;BME280;54877;51.504;3.894;2023-05-21T01:43:00;101959.59;;;17.59;58.59
66398;BME280;54877;51.504;3.894;2023-05-21T01:45:27;101962.38;;;17.58;58.53
66398;BME280;54877;51.504;3.894;2023-05-21T01:47:55;101958.94;;;17.56;58.85
66398;BME280;54877;51.504;3.894;2023-05-21T01:50:24;101958.06;;;17.55;58.72
66398;BME280;54877;51.504;3.894;2023-05-21T01:52:51;101955.41;;;17.55;58.78
66398;BME280;54877;51.504;3.894;2023-05-21T01:55:18;101956.34;;;17.54;59.12
66398;BME280;54877;51.504;3.894;2023-05-21T01:57:48;101947.38;;;17.55;58.85
66398;BME280;54877;51.504;3.894;2023-05-21T02:00:17;101950.97;;;17.54;58.88
66398;BME280;54877;51.504;3.894;2023-05-21T02:02:44;101959.03;;;17.54;58.87
66398;BME280;54877;51.504;3.894;2023-05-21T02:05:09;101950.03;;;17.55;58.92
66398;BME280;54877;51.504;3.894;2023-05-21T02:07:34;101954.63;;;17.53;58.78
66398;BME280;54877;51.504;3.894;2023-05-21T02:10:01;101941.47;;;17.49;58.92
66398;BME280;54877;51.504;3.894;2023-05-21T02:12:27;101944.25;;;17.47;59.13
66398;BME280;54877;51.504;3.894;2023-05-21T02:14:53;101943.41;;;17.47;58.89
66398;BME280;54877;51.504;3.894;2023-05-21T02:17:20;101941.78;;;17.44;58.96
66398;BME280;54877;51.504;3.894;2023-05-21T02:19:45;101944.44;;;17.44;59.16
66398;BME280;54877;51.504;3.894;2023-05-21T02:22:11;101947.50;;;17.38;59.38
66398;BME280;54877;51.504;3.894;2023-05-21T02:24:36;101944.63;;;17.41;59.37
66398;BME280;54877;51.504;3.894;2023-05-21T02:27:01;101945.88;;;17.36;59.49
66398;BME280;54877;51.504;3.894;2023-05-21T02:29:27;101948.72;;;17.33;59.54
66398;BME280;54877;51.504;3.894;2023-05-21T02:31:53;101947.84;;;17.32;59.69
66398;BME280;54877;51.504;3.894;2023-05-21T02:34:18;101946.91;;;17.33;59.91
66398;BME280;54877;51.504;3.894;2023-05-21T02:36:44;101948.63;;;17.34;60.07
66398;BME280;54877;51.504;3.894;2023-05-21T02:39:12;101945.94;;;17.34;59.78
66398;BME280;54877;51.504;3.894;2023-05-21T02:41:39;101941.75;;;17.30;60.01
66398;BME280;54877;51.504;3.894;2023-05-21T02:44:04;101955.41;;;17.26;60.13
66398;BME280;54877;51.504;3.894;2023-05-21T02:46:30;101945.72;;;17.23;60.23
66398;BME280;54877;51.504;3.894;2023-05-21T02:48:55;101948.22;;;17.26;60.43
66398;BME280;54877;51.504;3.894;2023-05-21T02:51:20;101946.50;;;17.25;60.85
66398;BME280;54877;51.504;3.894;2023-05-21T02:53:46;101947.28;;;17.27;60.59
66398;BME280;54877;51.504;3.894;2023-05-21T02:56:12;101943.84;;;17.25;60.91
66398;BME280;54877;51.504;3.894;2023-05-21T02:58:37;101942.78;;;17.28;60.90
66398;BME280;54877;51.504;3.894;2023-05-21T03:01:02;101941.91;;;17.27;60.79
66398;BME280;54877;51.504;3.894;2023-05-21T03:03:28;101933.13;;;17.25;61.11
66398;BME280;54877;51.504;3.894;2023-05-21T03:05:53;101934.19;;;17.23;61.25
66398;BME280;54877;51.504;3.894;2023-05-21T03:08:18;101938.66;;;17.22;61.21
66398;BME280;54877;51.504;3.894;2023-05-21T03:10:44;101937.91;;;17.20;61.28
66398;BME280;54877;51.504;3.894;2023-05-21T03:13:09;101931.75;;;17.18;61.39
66398;BME280;54877;51.504;3.894;2023-05-21T03:15:34;101932.72;;;17.17;61.72
66398;BME280;54877;51.504;3.894;2023-05-21T03:18:00;101934.44;;;17.18;61.45
66398;BME280;54877;51.504;3.894;2023-05-21T03:20:25;101935.59;;;17.14;61.49
66398;BME280;54877;51.504;3.894;2023-05-21T03:22:52;101937.50;;;17.12;61.55
66398;BME280;54877;51.504;3.894;2023-05-21T03:25:18;101938.50;;;17.10;61.67
66398;BME280;54877;51.504;3.894;2023-05-21T03:27:45;101934.22;;;17.07;61.82
66398;BME280;54877;51.504;3.894;2023-05-21T03:30:10;101938.03;;;17.03;62.27
66398;BME280;54877;51.504;3.894;2023-05-21T03:32:36;101937.06;;;17.04;62.10
66398;BME280;54877;51.504;3.894;2023-05-21T03:35:02;101932.34;;;17.09;61.76
66398;BME280;54877;51.504;3.894;2023-05-21T03:37:29;101935.75;;;17.11;62.10
66398;BME280;54877;51.504;3.894;2023-05-21T03:39:54;101929.47;;;17.12;61.96
66398;BME280;54877;51.504;3.894;2023-05-21T03:42:19;101931.09;;;17.15;62.09
66398;BME280;54877;51.504;3.894;2023-05-21T03:44:45;101922.78;;;17.19;62.13
66398;BME280;54877;51.504;3.894;2023-05-21T03:47:10;101925.34;;;17.21;62.52
66398;BME280;54877;51.504;3.894;2023-05-21T03:49:35;101932.44;;;17.22;62.23
66398;BME280;54877;51.504;3.894;2023-05-21T03:52:01;101918.19;;;17.21;62.45
66398;BME280;54877;51.504;3.894;2023-05-21T03:54:26;101920.69;;;17.24;62.75
66398;BME280;54877;51.504;3.894;2023-05-21T03:56:51;101920.50;;;17.27;62.63
66398;BME280;54877;51.504;3.894;2023-05-21T03:59:17;101917.66;;;17.30;62.64
66398;BME280;54877;51.504;3.894;2023-05-21T04:01:42;101922.25;;;17.28;62.81
66398;BME280;54877;51.504;3.894;2023-05-21T04:04:09;101920.31;;;17.30;62.74
66398;BME280;54877;51.504;3.894;2023-05-21T04:06:37;101925.38;;;17.35;62.54
66398;BME280;54877;51.504;3.894;2023-05-21T04:09:02;101928.00;;;17.36;62.49
66398;BME280;54877;51.504;3.894;2023-05-21T04:11:28;101918.81;;;17.40;62.65
66398;BME280;54877;51.504;3.894;2023-05-21T04:13:55;101923.09;;;17.43;62.62
66398;BME280;54877;51.504;3.894;2023-05-21T04:16:20;101924.25;;;17.39;62.50
66398;BME280;54877;51.504;3.894;2023-05-21T04:18:46;101916.13;;;17.40;62.51
66398;BME280;54877;51.504;3.894;2023-05-21T04:21:12;101917.09;;;17.39;62.60
66398;BME280;54877;51.504;3.894;2023-05-21T04:23:38;101923.03;;;17.44;62.77
66398;BME280;54877;51.504;3.894;2023-05-21T04:26:03;101924.94;;;17.42;62.58
66398;BME280;54877;51.504;3.894;2023-05-21T04:28:28;101921.13;;;17.46;62.37
66398;BME280;54877;51.504;3.894;2023-05-21T04:30:54;101926.84;;;17.40;62.35
66398;BME280;54877;51.504;3.894;2023-05-21T04:33:20;101929.44;;;17.42;62.24
66398;BME280;54877;51.504;3.894;2023-05-21T04:35:46;101926.25;;;17.35;62.72
66398;BME280;54877;51.504;3.894;2023-05-21T04:38:13;101934.78;;;17.42;62.47
66398;BME280;54877;51.504;3.894;2023-05-21T04:40:44;101930.19;;;17.44;62.46
66398;BME280;54877;51.504;3.894;2023-05-21T04:43:11;101931.63;;;17.49;62.36
66398;BME280;54877;51.504;3.894;2023-05-21T04:45:36;101933.38;;;17.50;62.33
66398;BME280;54877;51.504;3.894;2023-05-21T04:48:01;101930.88;;;17.47;62.42
66398;BME280;54877;51.504;3.894;2023-05-21T04:50:27;101926.19;;;17.37;62.52
66398;BME280;54877;51.504;3.894;2023-05-21T04:52:54;101933.75;;;17.44;62.60
66398;BME280;54877;51.504;3.894;2023-05-21T04:55:20;101937.00;;;17.49;62.54
66398;BME280;54877;51.504;3.894;2023-05-21T04:57:46;101933.56;;;17.47;62.78
66398;BME280;54877;51.504;3.894;2023-05-21T05:00:12;101929.72;;;17.51;62.79
66398;BME280;54877;51.504;3.894;2023-05-21T05:02:37;101921.97;;;17.47;63.10
66398;BME280;54877;51.504;3.894;2023-05-21T05:05:03;101914.00;;;17.61;62.62
66398;BME280;54877;51.504;3.894;2023-05-21T05:07:28;101918.28;;;17.64;62.77
66398;BME280;54877;51.504;3.894;2023-05-21T05:09:54;101920.78;;;17.67;62.81
66398;BME280;54877;51.504;3.894;2023-05-21T05:12:19;101924.03;;;17.72;62.80
66398;BME280;54877;51.504;3.894;2023-05-21T05:14:44;101921.47;;;17.70;62.97
66398;BME280;54877;51.504;3.894;2023-05-21T05:17:11;101918.78;;;17.70;62.92
66398;BME280;54877;51.504;3.894;2023-05-21T05:19:39;101921.34;;;17.72;63.03
66398;BME280;54877;51.504;3.894;2023-05-21T05:22:04;101921.66;;;17.67;63.05
66398;BME280;54877;51.504;3.894;2023-05-21T05:24:31;101920.22;;;17.62;63.32
66398;BME280;54877;51.504;3.894;2023-05-21T05:26:56;101923.75;;;17.76;62.99
66398;BME280;54877;51.504;3.894;2023-05-21T05:29:21;101920.41;;;17.73;63.12
66398;BME280;54877;51.504;3.894;2023-05-21T05:31:47;101917.31;;;17.79;62.98
66398;BME280;54877;51.504;3.894;2023-05-21T05:34:12;101910.06;;;17.81;62.84
66398;BME280;54877;51.504;3.894;2023-05-21T05:36:37;101914.75;;;17.77;63.05
66398;BME280;54877;51.504;3.894;2023-05-21T05:39:03;101912.19;;;17.62;63.55
66398;BME280;54877;51.504;3.894;2023-05-21T05:41:28;101910.16;;;17.65;63.67
66398;BME280;54877;51.504;3.894;2023-05-21T05:43:53;101905.47;;;17.69;63.54
66398;BME280;54877;51.504;3.894;2023-05-21T05:46:19;101913.88;;;17.77;63.55
66398;BME280;54877;51.504;3.894;2023-05-21T05:48:44;101907.97;;;17.86;63.14
66398;BME280;54877;51.504;3.894;2023-05-21T05:51:10;101905.75;;;17.92;62.98
66398;BME280;54877;51.504;3.894;2023-05-21T05:53:35;101900.50;;;17.91;63.04
66398;BME280;54877;51.504;3.894;2023-05-21T05:56:01;101903.53;;;17.99;62.85
66398;BME280;54877;51.504;3.894;2023-05-21T05:58:28;101910.13;;;18.07;62.72
66398;BME280;54877;51.504;3.894;2023-05-21T06:00:54;101911.94;;;18.07;62.88
66398;BME280;54877;51.504;3.894;2023-05-21T06:03:19;101903.88;;;18.21;62.57
66398;BME280;54877;51.504;3.894;2023-05-21T06:05:45;101906.25;;;18.26;62.37
66398;BME280;54877;51.504;3.894;2023-05-21T06:08:10;101910.16;;;18.34;62.00
66398;BME280;54877;51.504;3.894;2023-05-21T06:10:36;101916.19;;;18.38;61.92
66398;BME280;54877;51.504;3.894;2023-05-21T06:13:01;101915.59;;;18.47;62.10
66398;BME280;54877;51.504;3.894;2023-05-21T06:15:26;101905.81;;;18.60;61.82
66398;BME280;54877;51.504;3.894;2023-05-21T06:17:52;101910.66;;;18.67;61.06
66398;BME280;54877;51.504;3.894;2023-05-21T06:20:17;101911.94;;;18.89;60.89
66398;BME280;54877;51.504;3.894;2023-05-21T06:22:42;101911.50;;;18.95;60.36
66398;BME280;54877;51.504;3.894;2023-05-21T06:25:08;101919.50;;;19.34;59.46
66398;BME280;54877;51.504;3.894;2023-05-21T06:27:34;101922.56;;;19.67;58.72
66398;BME280;54877;51.504;3.894;2023-05-21T06:30:01;101919.78;;;19.69;58.03
66398;BME280;54877;51.504;3.894;2023-05-21T06:32:26;101917.94;;;19.69;57.75
66398;BME280;54877;51.504;3.894;2023-05-21T06:34:51;101910.09;;;19.79;57.58
66398;BME280;54877;51.504;3.894;2023-05-21T06:37:19;101914.03;;;19.86;57.41
66398;BME280;54877;51.504;3.894;2023-05-21T06:39:45;101918.50;;;19.74;57.46
66398;BME280;54877;51.504;3.894;2023-05-21T06:42:11;101907.06;;;19.58;57.76
66398;BME280;54877;51.504;3.894;2023-05-21T06:44:36;101912.25;;;19.49;58.11
66398;BME280;54877;51.504;3.894;2023-05-21T06:47:01;101903.44;;;19.59;57.89
66398;BME280;54877;51.504;3.894;2023-05-21T06:49:27;101915.91;;;19.48;57.98
66398;BME280;54877;51.504;3.894;2023-05-21T06:51:52;101911.38;;;19.48;58.24
66398;BME280;54877;51.504;3.894;2023-05-21T06:54:18;101903.44;;;19.59;58.09
66398;BME280;54877;51.504;3.894;2023-05-21T06:56:43;101908.38;;;19.65;57.90
66398;BME280;54877;51.504;3.894;2023-05-21T06:59:08;101913.84;;;19.76;57.64
66398;BME280;54877;51.504;3.894;2023-05-21T07:01:34;101916.00;;;19.71;57.69
66398;BME280;54877;51.504;3.894;2023-05-21T07:04:00;101907.50;;;19.77;57.84
66398;BME280;54877;51.504;3.894;2023-05-21T07:06:25;101913.94;;;19.87;57.70
66398;BME280;54877;51.504;3.894;2023-05-21T07:08:50;101904.38;;;19.96;57.73
66398;BME280;54877;51.504;3.894;2023-05-21T07:11:16;101897.00;;;20.11;57.49
66398;BME280;54877;51.504;3.894;2023-05-21T07:13:41;101910.75;;;20.19;56.86
66398;BME280;54877;51.504;3.894;2023-05-21T07:16:06;101923.34;;;20.18;56.84
66398;BME280;54877;51.504;3.894;2023-05-21T07:18:32;101908.94;;;20.32;56.83
66398;BME280;54877;51.504;3.894;2023-05-21T07:20:57;101905.22;;;20.45;56.77
66398;BME280;54877;51.504;3.894;2023-05-21T07:23:23;101908.22;;;20.41;56.37
66398;BME280;54877;51.504;3.894;2023-05-21T07:25:48;101922.00;;;20.49;56.25
66398;BME280;54877;51.504;3.894;2023-05-21T07:28:13;101917.59;;;20.48;56.11
66398;BME280;54877;51.504;3.894;2023-05-21T07:30:39;101915.59;;;20.14;56.55
66398;BME280;54877;51.504;3.894;2023-05-21T07:33:04;101913.22;;;20.22;56.71
66398;BME280;54877;51.504;3.894;2023-05-21T07:35:30;101919.81;;;20.18;56.95
66398;BME280;54877;51.504;3.894;2023-05-21T07:37:55;101922.72;;;20.15;56.87
66398;BME280;54877;51.504;3.894;2023-05-21T07:40:20;101925.19;;;20.18;56.93
66398;BME280;54877;51.504;3.894;2023-05-21T07:42:46;101934.72;;;20.22;56.96
66398;BME280;54877;51.504;3.894;2023-05-21T07:45:11;101928.53;;;20.09;57.18
66398;BME280;54877;51.504;3.894;2023-05-21T07:47:36;101926.84;;;20.08;57.30
66398;BME280;54877;51.504;3.894;2023-05-21T07:50:02;101921.47;;;20.08;57.25
66398;BME280;54877;51.504;3.894;2023-05-21T07:52:27;101917.69;;;20.10;57.46
66398;BME280;54877;51.504;3.894;2023-05-21T07:54:53;101915.91;;;19.85;57.92
66398;BME280;54877;51.504;3.894;2023-05-21T07:57:18;101915.44;;;19.91;57.83
66398;BME280;54877;51.504;3.894;2023-05-21T07:59:43;101921.03;;;19.88;58.14
66398;BME280;54877;51.504;3.894;2023-05-21T08:02:08;101902.63;;;20.08;58.20
66398;BME280;54877;51.504;3.894;2023-05-21T08:04:34;101911.91;;;20.40;57.46
66398;BME280;54877;51.504;3.894;2023-05-21T08:06:59;101904.19;;;20.59;56.80
66398;BME280;54877;51.504;3.894;2023-05-21T08:09:25;101902.28;;;20.72;56.42
66398;BME280;54877;51.504;3.894;2023-05-21T08:11:51;101905.31;;;20.91;55.72
66398;BME280;54877;51.504;3.894;2023-05-21T08:14:16;101905.13;;;21.05;55.35
66398;BME280;54877;51.504;3.894;2023-05-21T08:16:41;101902.63;;;21.15;54.81
66398;BME280;54877;51.504;3.894;2023-05-21T08:19:07;101903.88;;;21.33;54.54
66398;BME280;54877;51.504;3.894;2023-05-21T08:21:32;101903.41;;;21.39;54.06
66398;BME280;54877;51.504;3.894;2023-05-21T08:23:58;101908.66;;;21.41;53.77
66398;BME280;54877;51.504;3.894;2023-05-21T08:26:24;101914.19;;;21.50;53.50
66398;BME280;54877;51.504;3.894;2023-05-21T08:28:49;101906.84;;;21.63;53.45
66398;BME280;54877;51.504;3.894;2023-05-21T08:31:16;101905.03;;;21.75;53.10
66398;BME280;54877;51.504;3.894;2023-05-21T08:33:48;101896.59;;;21.91;52.81
66398;BME280;54877;51.504;3.894;2023-05-21T08:36:17;101894.75;;;21.91;53.16
66398;BME280;54877;51.504;3.894;2023-05-21T08:38:43;101899.19;;;21.92;52.62
66398;BME280;54877;51.504;3.894;2023-05-21T08:41:10;101898.31;;;22.03;52.58
66398;BME280;54877;51.504;3.894;2023-05-21T08:43:36;101900.88;;;21.93;52.37
66398;BME280;54877;51.504;3.894;2023-05-21T08:46:03;101904.06;;;21.98;52.19
66398;BME280;54877;51.504;3.894;2023-05-21T08:48:32;101910.94;;;21.91;52.52
66398;BME280;54877;51.504;3.894;2023-05-21T08:50:58;101902.09;;;21.78;52.67
66398;BME280;54877;51.504;3.894;2023-05-21T08:53:25;101899.63;;;21.53;53.15
66398;BME280;54877;51.504;3.894;2023-05-21T08:55:53;101908.59;;;21.64;53.19
66398;BME280;54877;51.504;3.894;2023-05-21T08:58:20;101893.75;;;21.59;53.10
66398;BME280;54877;51.504;3.894;2023-05-21T09:00:46;101892.75;;;21.60;53.74
66398;BME280;54877;51.504;3.894;2023-05-21T09:03:11;101909.19;;;21.79;53.46
66398;BME280;54877;51.504;3.894;2023-05-21T09:05:39;101903.69;;;21.81;53.09
66398;BME280;54877;51.504;3.894;2023-05-21T09:08:06;101895.88;;;21.89;52.63
66398;BME280;54877;51.504;3.894;2023-05-21T09:10:40;101892.06;;;22.02;52.27
66398;BME280;54877;51.504;3.894;2023-05-21T09:13:10;101895.22;;;22.07;52.36
66398;BME280;54877;51.504;3.894;2023-05-21T09:15:36;101887.53;;;22.03;52.31
66398;BME280;54877;51.504;3.894;2023-05-21T09:18:02;101883.00;;;21.92;51.96
66398;BME280;54877;51.504;3.894;2023-05-21T09:20:27;101886.91;;;21.99;52.21
66398;BME280;54877;51.504;3.894;2023-05-21T09:22:53;101875.13;;;22.11;52.20
66398;BME280;54877;51.504;3.894;2023-05-21T09:25:21;101874.88;;;22.26;51.69
66398;BME280;54877;51.504;3.894;2023-05-21T09:27:50;101880.28;;;22.14;51.47
66398;BME280;54877;51.504;3.894;2023-05-21T09:30:16;101879.69;;;22.43;51.33
66398;BME280;54877;51.504;3.894;2023-05-21T09:32:43;101869.94;;;22.62;51.02
66398;BME280;54877;51.504;3.894;2023-05-21T09:35:10;101872.72;;;22.83;50.51
66398;BME280;54877;51.504;3.894;2023-05-21T09:37:37;101865.53;;;22.93;50.46
66398;BME280;54877;51.504;3.894;2023-05-21T09:40:10;101875.13;;;22.97;49.79
66398;BME280;54877;51.504;3.894;2023-05-21T09:42:40;101871.06;;;22.71;50.36
66398;BME280;54877;51.504;3.894;2023-05-21T09:45:07;101872.06;;;22.70;50.18
66398;BME280;54877;51.504;3.894;2023-05-21T09:47:34;101872.06;;;22.70;50.47
66398;BME280;54877;51.504;3.894;2023-05-21T09:50:05;101869.94;;;22.73;50.65
66398;BME280;54877;51.504;3.894;2023-05-21T09:52:31;101871.50;;;22.76;50.06
66398;BME280;54877;51.504;3.894;2023-05-21T09:55:01;101871.00;;;22.82;50.13
66398;BME280;54877;51.504;3.894;2023-05-21T09:57:27;101869.31;;;22.81;49.59
66398;BME280;54877;51.504;3.894;2023-05-21T09:59:53;101871.94;;;22.60;49.83
66398;BME280;54877;51.504;3.894;2023-05-21T10:02:20;101871.06;;;22.60;49.79
66398;BME280;54877;51.504;3.894;2023-05-21T10:04:48;101867.63;;;22.69;49.45
66398;BME280;54877;51.504;3.894;2023-05-21T10:07:17;101867.91;;;22.55;49.86
66398;BME280;54877;51.504;3.894;2023-05-21T10:09:46;101865.41;;;22.63;49.95
66398;BME280;54877;51.504;3.894;2023-05-21T10:12:13;101856.13;;;22.67;49.61
66398;BME280;54877;51.504;3.894;2023-05-21T10:14:41;101859.06;;;22.64;50.04
66398;BME280;54877;51.504;3.894;2023-05-21T10:17:10;101861.97;;;22.72;49.84
66398;BME280;54877;51.504;3.894;2023-05-21T10:19:37;101854.53;;;22.53;49.85
66398;BME280;54877;51.504;3.894;2023-05-21T10:22:05;101843.75;;;22.85;50.04
66398;BME280;54877;51.504;3.894;2023-05-21T10:24:32;101847.41;;;22.84;49.65
66398;BME280;54877;51.504;3.894;2023-05-21T10:26:59;101850.47;;;23.11;49.26
66398;BME280;54877;51.504;3.894;2023-05-21T10:29:26;101847.56;;;23.03;48.93
66398;BME280;54877;51.504;3.894;2023-05-21T10:31:52;101852.16;;;23.12;49.02
66398;BME280;54877;51.504;3.894;2023-05-21T10:34:18;101848.22;;;23.16;49.02
66398;BME280;54877;51.504;3.894;2023-05-21T10:36:45;101852.66;;;22.97;49.41
66398;BME280;54877;51.504;3.894;2023-05-21T10:39:13;101849.66;;;23.20;48.55
66398;BME280;54877;51.504;3.894;2023-05-21T10:44:31;101838.19;;;23.49;47.93
66398;BME280;54877;51.504;3.894;2023-05-21T10:50:02;101831.06;;;23.48;48.38
66398;BME280;54877;51.504;3.894;2023-05-21T10:52:54;101824.56;;;23.50;47.66
66398;BME280;54877;51.504;3.894;2023-05-21T11:01:04;101811.56;;;23.84;47.74
66398;BME280;54877;51.504;3.894;2023-05-21T11:03:31;101810.84;;;23.82;47.24
66398;BME280;54877;51.504;3.894;2023-05-21T11:05:58;101806.69;;;23.78;47.59
66398;BME280;54877;51.504;3.894;2023-05-21T11:08:28;101804.16;;;23.76;48.72
66398;BME280;54877;51.504;3.894;2023-05-21T11:10:57;101803.81;;;23.70;47.65
66398;BME280;54877;51.504;3.894;2023-05-21T11:13:23;101794.47;;;23.74;48.34
66398;BME280;54877;51.504;3.894;2023-05-21T11:21:02;101796.63;;;23.80;49.21
66398;BME280;54877;51.504;3.894;2023-05-21T11:26:14;101799.00;;;23.64;49.61
66398;BME280;54877;51.504;3.894;2023-05-21T11:28:40;101799.81;;;23.55;49.97
66398;BME280;54877;51.504;3.894;2023-05-21T11:33:55;101791.97;;;23.31;49.99
66398;BME280;54877;51.504;3.894;2023-05-21T11:39:46;101797.34;;;23.21;50.38
66398;BME280;54877;51.504;3.894;2023-05-21T11:42:12;101806.84;;;22.95;50.26
66398;BME280;54877;51.504;3.894;2023-05-21T11:44:51;101808.63;;;23.06;50.63
66398;BME280;54877;51.504;3.894;2023-05-21T11:47:17;101805.28;;;23.13;49.92
66398;BME280;54877;51.504;3.894;2023-05-21T11:49:43;101799.16;;;23.11;50.25
66398;BME280;54877;51.504;3.894;2023-05-21T11:52:10;101798.78;;;23.25;50.63
66398;BME280;54877;51.504;3.894;2023-05-21T11:54:41;101808.06;;;23.32;50.45
66398;BME280;54877;51.504;3.894;2023-05-21T11:57:10;101798.50;;;23.28;50.38
66398;BME280;54877;51.504;3.894;2023-05-21T11:59:36;101792.06;;;23.20;50.35
66398;BME280;54877;51.504;3.894;2023-05-21T12:02:03;101796.75;;;23.38;50.06
66398;BME280;54877;51.504;3.894;2023-05-21T12:04:33;101797.97;;;23.34;50.09
66398;BME280;54877;51.504;3.894;2023-05-21T12:07:03;101797.19;;;23.44;49.90
66398;BME280;54877;51.504;3.894;2023-05-21T12:09:31;101792.94;;;23.51;49.46
66398;BME280;54877;51.504;3.894;2023-05-21T12:12:15;101794.94;;;23.49;49.66
66398;BME280;54877;51.504;3.894;2023-05-21T12:14:46;101793.59;;;23.64;49.57
66398;BME280;54877;51.504;3.894;2023-05-21T12:17:16;101789.44;;;23.60;48.90
66398;BME280;54877;51.504;3.894;2023-05-21T12:19:44;101791.00;;;23.53;49.38
66398;BME280;54877;51.504;3.894;2023-05-21T12:22:10;101797.53;;;23.60;49.44
66398;BME280;54877;51.504;3.894;2023-05-21T12:24:36;101792.06;;;23.41;49.14
66398;BME280;54877;51.504;3.894;2023-05-21T12:27:04;101811.91;;;23.30;49.27
66398;BME280;54877;51.504;3.894;2023-05-21T12:29:34;101797.63;;;23.18;49.66
66398;BME280;54877;51.504;3.894;2023-05-21T12:32:02;101797.84;;;23.36;49.29
66398;BME280;54877;51.504;3.894;2023-05-21T12:35:02;101806.50;;;23.30;49.43
66398;BME280;54877;51.504;3.894;2023-05-21T12:37:21;101795.88;;;23.17;49.28
66398;BME280;54877;51.504;3.894;2023-05-21T12:39:50;101787.25;;;23.23;49.79
66398;BME280;54877;51.504;3.894;2023-05-21T12:42:26;101790.34;;;23.39;49.78
66398;BME280;54877;51.504;3.894;2023-05-21T12:45:04;101790.97;;;23.22;49.22
66398;BME280;54877;51.504;3.894;2023-05-21T12:47:31;101788.81;;;23.26;49.65
66398;BME280;54877;51.504;3.894;2023-05-21T12:49:57;101788.81;;;23.26;50.20
66398;BME280;54877;51.504;3.894;2023-05-21T12:52:24;101786.56;;;23.31;49.67
66398;BME280;54877;51.504;3.894;2023-05-21T12:54:51;101789.41;;;23.29;49.48
66398;BME280;54877;51.504;3.894;2023-05-21T12:57:18;101783.75;;;23.32;49.99
66398;BME280;54877;51.504;3.894;2023-05-21T12:59:51;101786.94;;;23.37;49.50
66398;BME280;54877;51.504;3.894;2023-05-21T13:02:24;101793.78;;;23.42;49.54
66398;BME280;54877;51.504;3.894;2023-05-21T13:04:54;101793.03;;;23.39;48.61
66398;BME280;54877;51.504;3.894;2023-05-21T13:07:23;101789.25;;;23.21;49.19
66398;BME280;54877;51.504;3.894;2023-05-21T13:09:50;101796.44;;;23.11;48.89
66398;BME280;54877;51.504;3.894;2023-05-21T13:12:18;101801.84;;;23.11;49.36
66398;BME280;54877;51.504;3.894;2023-05-21T13:14:45;101790.28;;;23.09;49.37